CHX20 EDQD-EDQD

Flight info

Callsign CHX20
Flight time 0h 1m
Altitude 3000
Route VFR
Aircraft EC35/L-VGD/A

Departure

Time 2026-04-25 14:31
Airport Bayreuth Airport (EDQD)

Arrival

Time 2026-04-25 14:32
Airport Bayreuth Airport (EDQD)
Time Latitude Longitude Altitude Speed Heading
2026-04-25 14:20 49.98337 11.43303 1369 ft 0 kts 289°
2026-04-25 14:29 49.98336 11.43302 1372 ft 2 kts 289°
2026-04-25 14:29 49.98330 11.43340 1461 ft 4 kts 289°
2026-04-25 14:29 49.98321 11.43388 1589 ft 4 kts 289°
2026-04-25 14:29 49.98359 11.43222 1811 ft 47 kts 287°
2026-04-25 14:30 49.98164 11.42600 1987 ft 94 kts 207°
2026-04-25 14:30 49.97243 11.44380 2182 ft 144 kts 108°
2026-04-25 14:30 49.96927 11.45927 2190 ft 156 kts 108°
2026-04-25 14:31 49.96475 11.47504 2214 ft 162 kts 121°
2026-04-25 14:31 49.95906 11.49019 2318 ft 163 kts 121°
2026-04-25 14:31 49.95414 11.50568 2434 ft 159 kts 110°
2026-04-25 14:31 49.95058 11.52212 2414 ft 164 kts 109°
2026-04-25 14:32 49.94825 11.53889 2179 ft 154 kts 103°
2026-04-25 14:32 49.94202 11.54830 1998 ft 101 kts 204°
2026-04-25 14:32 49.94085 11.54174 1772 ft 75 kts 313°
2026-04-25 14:32 49.94342 11.53744 1543 ft 33 kts 299°
2026-04-25 14:33 49.94426 11.53569 1418 ft 6 kts 297°
2026-04-25 14:33 49.94437 11.53540 1393 ft 2 kts 297°
2026-04-25 14:33 49.94438 11.53537 1385 ft 0 kts 296°
2026-04-25 14:40 49.94434 11.53552 1430 ft 4 kts 296°
2026-04-25 14:40 49.94430 11.53590 1495 ft 2 kts 296°
2026-04-25 14:41 49.94523 11.53368 1724 ft 54 kts 304°
2026-04-25 14:41 49.95071 11.53256 1818 ft 108 kts 19°
2026-04-25 14:41 49.95401 11.54354 1983 ft 133 kts 90°
2026-04-25 14:41 49.95388 11.55327 2200 ft 133 kts 87°
2026-04-25 14:42 49.95545 11.56769 2578 ft 131 kts 74°
2026-04-25 14:42 49.95667 11.57656 2861 ft 128 kts 71°
2026-04-25 14:42 49.96081 11.59361 3072 ft 126 kts 60°
2026-04-25 14:42 49.96444 11.60599 3066 ft 128 kts 58°
2026-04-25 14:43 49.96841 11.61853 2982 ft 129 kts 55°
2026-04-25 14:43 49.97262 11.63077 2800 ft 127 kts 56°
2026-04-25 14:43 49.97665 11.64266 2645 ft 122 kts 55°
2026-04-25 14:43 49.98103 11.65196 2549 ft 80 kts 353°
2026-04-25 14:44 49.98495 11.64856 2117 ft 65 kts 290°
2026-04-25 14:44 49.98500 11.64283 1814 ft 46 kts 253°
2026-04-25 14:44 49.98352 11.63879 1664 ft 27 kts 234°
2026-04-25 14:44 49.98307 11.63781 1618 ft 4 kts 240°
2026-04-25 14:45 49.98297 11.63760 1608 ft 1 kts 240°
2026-04-25 14:45 49.98294 11.63753 1603 ft 0 kts 240°
2026-04-25 14:45 49.98294 11.63752 1604 ft 0 kts 241°
2026-04-25 14:45 49.98294 11.63751 1604 ft 0 kts 241°
2026-04-25 15:06 49.98299 11.63747 1603 ft 4 kts 271°
2026-04-25 15:06 49.98304 11.63559 1618 ft 34 kts 257°
2026-04-25 15:06 49.98099 11.62985 1725 ft 86 kts 244°
2026-04-25 15:07 49.97894 11.62001 2008 ft 107 kts 295°
2026-04-25 15:07 49.98555 11.62043 2286 ft 122 kts 45°
2026-04-25 15:07 49.99105 11.63080 2631 ft 125 kts 44°
2026-04-25 15:07 49.99639 11.64154 2953 ft 126 kts 45°
2026-04-25 15:08 50.00193 11.65268 3086 ft 135 kts 46°
2026-04-25 15:08 50.00798 11.66467 3055 ft 145 kts 46°
2026-04-25 15:08 50.01458 11.67657 3032 ft 144 kts 41°
2026-04-25 15:08 50.02160 11.68741 3041 ft 142 kts 38°
2026-04-25 15:09 50.02894 11.69784 3038 ft 143 kts 37°
2026-04-25 15:09 50.03658 11.70804 3047 ft 150 kts 34°
2026-04-25 15:09 50.05307 11.72890 3008 ft 150 kts 33°
2026-04-25 15:10 50.06117 11.73899 3009 ft 148 kts 33°
2026-04-25 15:10 50.06917 11.74891 3015 ft 146 kts 32°
2026-04-25 15:10 50.08489 11.76836 3029 ft 146 kts 33°
2026-04-25 15:11 50.09290 11.77805 3025 ft 146 kts 32°
2026-04-25 15:11 50.10092 11.78781 3023 ft 147 kts 33°
2026-04-25 15:11 50.10906 11.79740 3020 ft 146 kts 32°
2026-04-25 15:12 50.12522 11.81673 3023 ft 148 kts 32°
2026-04-25 15:12 50.13318 11.82626 3200 ft 139 kts 32°
2026-04-25 15:12 50.14060 11.83550 3468 ft 137 kts 32°
2026-04-25 15:12 50.14301 11.83859 3512 ft 140 kts 32°
2026-04-25 15:13 50.15597 11.85457 3541 ft 144 kts 33°
2026-04-25 15:13 50.17193 11.87386 3525 ft 147 kts 32°
2026-04-25 15:13 50.18007 11.88356 3522 ft 147 kts 32°
2026-04-25 15:14 50.18810 11.89311 3526 ft 145 kts 32°
2026-04-25 15:14 50.19601 11.90267 3535 ft 145 kts 33°
2026-04-25 15:14 50.20406 11.91243 3529 ft 147 kts 33°
2026-04-25 15:14 50.21220 11.92217 3526 ft 148 kts 32°
2026-04-25 15:15 50.22048 11.93201 3520 ft 150 kts 32°
2026-04-25 15:15 50.22858 11.94183 3516 ft 145 kts 32°
2026-04-25 15:15 50.23638 11.95151 3531 ft 143 kts 32°
2026-04-25 15:15 50.24434 11.96116 3533 ft 147 kts 33°
2026-04-25 15:16 50.25254 11.97100 3527 ft 149 kts 32°
2026-04-25 15:16 50.26072 11.98107 3521 ft 149 kts 33°
2026-04-25 15:16 50.27698 12.00051 3527 ft 145 kts 32°
2026-04-25 15:17 50.29257 12.01975 3537 ft 141 kts 33°
2026-04-25 15:17 50.30036 12.02918 3537 ft 142 kts 33°
2026-04-25 15:17 50.30826 12.03867 3546 ft 145 kts 31°
2026-04-25 15:18 50.31678 12.04713 3547 ft 146 kts 26°
2026-04-25 15:18 50.33429 12.06303 3543 ft 146 kts 23°
2026-04-25 15:18 50.34332 12.07020 3543 ft 146 kts 20°
2026-04-25 15:19 50.35219 12.07726 3543 ft 142 kts 20°
2026-04-25 15:19 50.35504 12.07952 3540 ft 142 kts 20°
2026-04-25 15:19 50.37020 12.09010 3551 ft 147 kts 16°
2026-04-25 15:19 50.37976 12.09598 3542 ft 149 kts 14°
2026-04-25 15:20 50.38946 12.10190 3531 ft 148 kts 15°
2026-04-25 15:20 50.39879 12.10740 3531 ft 140 kts 15°
2026-04-25 15:20 50.40777 12.11271 3553 ft 142 kts 13°
2026-04-25 15:20 50.41729 12.11763 3550 ft 144 kts 10°
2026-04-25 15:21 50.42690 12.12212 3544 ft 144 kts 11°
2026-04-25 15:21 50.43662 12.12633 3538 ft 144 kts 10°
2026-04-25 15:21 50.44621 12.13048 3398 ft 144 kts
2026-04-25 15:21 50.45558 12.13433 3143 ft 135 kts
2026-04-25 15:22 50.46445 12.13738 2923 ft 126 kts
2026-04-25 15:22 50.47302 12.14006 2678 ft 124 kts
2026-04-25 15:22 50.48132 12.14202 2527 ft 117 kts
2026-04-25 15:22 50.48902 12.14331 2404 ft 109 kts 359°
2026-04-25 15:23 50.49633 12.14393 2365 ft 98 kts 355°
2026-04-25 15:23 50.50276 12.14477 2290 ft 89 kts 356°
2026-04-25 15:23 50.50857 12.14520 2239 ft 79 kts 353°
2026-04-25 15:23 50.51362 12.14554 2235 ft 62 kts 350°
2026-04-25 15:24 50.51773 12.14566 2108 ft 57 kts 345°
2026-04-25 15:24 50.52124 12.14564 2013 ft 45 kts 343°
2026-04-25 15:24 50.52419 12.14625 1873 ft 43 kts 33°
2026-04-25 15:24 50.52487 12.14722 1837 ft 39 kts 58°
2026-04-25 15:25 50.52279 12.15055 1608 ft 22 kts 263°
2026-04-25 15:25 50.52285 12.14877 1527 ft 13 kts 298°
2026-04-25 15:25 50.52316 12.14750 1483 ft 11 kts 292°
2026-04-25 15:25 50.52332 12.14660 1447 ft 7 kts 289°
2026-04-25 15:26 50.52353 12.14584 1409 ft 7 kts 288°
2026-04-25 15:26 50.52363 12.14514 1392 ft 8 kts 287°
2026-04-25 15:26 50.52369 12.14450 1363 ft 4 kts 285°
2026-04-25 15:26 50.52371 12.14432 1318 ft 1 kts 285°
2026-04-25 15:27 50.52372 12.14427 1306 ft 0 kts 284°
2026-04-25 15:27 50.52372 12.14423 1308 ft 0 kts 284°
2026-04-25 15:27 50.52388 12.14423 1310 ft 1 kts 285°
2026-04-25 15:28 50.52389 12.14420 1305 ft 0 kts 285°
2026-04-25 15:39 50.52389 12.14423 1309 ft 1 kts 285°
2026-04-25 15:39 50.52388 12.14431 1345 ft 3 kts 285°
2026-04-25 15:39 50.52388 12.14463 1419 ft 2 kts 285°
2026-04-25 15:39 50.52419 12.14315 1589 ft 51 kts 285°
2026-04-25 15:40 50.52820 12.13790 1748 ft 98 kts 340°
2026-04-25 15:40 50.53319 12.13831 1863 ft 119 kts
2026-04-25 15:40 50.54499 12.14328 2080 ft 139 kts
2026-04-25 15:40 50.55423 12.14721 2451 ft 136 kts
2026-04-25 15:41 50.56314 12.15073 2836 ft 128 kts
2026-04-25 15:41 50.57193 12.15335 3057 ft 134 kts
2026-04-25 15:41 50.58173 12.15575 3059 ft 150 kts
2026-04-25 15:41 50.59236 12.15852 3051 ft 157 kts
2026-04-25 15:42 50.60300 12.16148 3021 ft 151 kts
2026-04-25 15:42 50.61317 12.16442 3033 ft 150 kts
2026-04-25 15:42 50.62371 12.16741 3028 ft 155 kts
2026-04-25 15:42 50.63433 12.17041 3026 ft 155 kts
2026-04-25 15:43 50.64474 12.17330 3025 ft 149 kts
2026-04-25 15:43 50.65466 12.17603 2996 ft 144 kts
2026-04-25 15:43 50.66443 12.17883 2992 ft 143 kts
2026-04-25 15:43 50.67423 12.18177 2990 ft 140 kts
2026-04-25 15:44 50.68362 12.18464 2997 ft 138 kts
2026-04-25 15:44 50.69301 12.18751 3003 ft 138 kts
2026-04-25 15:44 50.70238 12.19057 3009 ft 137 kts
2026-04-25 15:44 50.71180 12.19372 3010 ft 140 kts
2026-04-25 15:45 50.72135 12.19700 3008 ft 141 kts
2026-04-25 15:45 50.73084 12.19998 3013 ft 138 kts
2026-04-25 15:45 50.73997 12.20290 3015 ft 132 kts
2026-04-25 15:45 50.74600 12.20483 3024 ft 135 kts
2026-04-25 15:46 50.75832 12.20894 3016 ft 133 kts
2026-04-25 15:46 50.76747 12.21207 3023 ft 136 kts
2026-04-25 15:46 50.77693 12.21504 3016 ft 141 kts
2026-04-25 15:46 50.78659 12.21804 3005 ft 140 kts
2026-04-25 15:47 50.79602 12.22107 3005 ft 138 kts
2026-04-25 15:47 50.80523 12.22435 3006 ft 134 kts
2026-04-25 15:47 50.81419 12.22768 3014 ft 131 kts
2026-04-25 15:47 50.82334 12.23088 3020 ft 138 kts
2026-04-25 15:48 50.83284 12.23394 3014 ft 140 kts
2026-04-25 15:48 50.84215 12.23700 3005 ft 133 kts
2026-04-25 15:48 50.85109 12.24010 3021 ft 130 kts
2026-04-25 15:48 50.86013 12.24316 3025 ft 137 kts
2026-04-25 15:49 50.86966 12.24640 3016 ft 141 kts
2026-04-25 15:49 50.87922 12.24949 3007 ft 140 kts
2026-04-25 15:49 50.88860 12.25271 3011 ft 138 kts
2026-04-25 15:49 50.89801 12.25577 3009 ft 136 kts
2026-04-25 15:50 50.90721 12.25909 3005 ft 134 kts
2026-04-25 15:50 50.91621 12.26227 3022 ft 132 kts
2026-04-25 15:50 50.92533 12.26540 3021 ft 137 kts
2026-04-25 15:50 50.93475 12.26852 3015 ft 142 kts
2026-04-25 15:51 50.94420 12.27170 3007 ft 138 kts
2026-04-25 15:51 50.95060 12.27380 3008 ft 139 kts
2026-04-25 15:51 50.96308 12.27787 3011 ft 140 kts
2026-04-25 15:51 50.97275 12.28098 3008 ft 141 kts
2026-04-25 15:52 50.98234 12.28413 3002 ft 138 kts
2026-04-25 15:52 50.99175 12.28719 3003 ft 139 kts
2026-04-25 15:52 51.00121 12.29026 3007 ft 138 kts
2026-04-25 15:52 51.01058 12.29322 3015 ft 137 kts
2026-04-25 15:53 51.01997 12.29610 3013 ft 140 kts
2026-04-25 15:53 51.02959 12.29917 3005 ft 142 kts
2026-04-25 15:53 51.03939 12.30206 3001 ft 143 kts
2026-04-25 15:53 51.04891 12.30488 3003 ft 138 kts
2026-04-25 15:54 51.05845 12.30770 3007 ft 139 kts
2026-04-25 15:54 51.06801 12.31071 3007 ft 141 kts
2026-04-25 15:54 51.07776 12.31375 3003 ft 141 kts
2026-04-25 15:54 51.08732 12.31677 3003 ft 141 kts
2026-04-25 15:55 51.09678 12.31973 3008 ft 138 kts
2026-04-25 15:55 51.10617 12.32261 3028 ft 139 kts
2026-04-25 15:55 51.11577 12.32553 3031 ft 140 kts
2026-04-25 15:55 51.12533 12.32845 2666 ft 141 kts
2026-04-25 15:56 51.13498 12.33148 2248 ft 145 kts
2026-04-25 15:56 51.14460 12.33453 2165 ft 136 kts
2026-04-25 15:56 51.15377 12.33735 2166 ft 132 kts
2026-04-25 15:56 51.16276 12.33995 2186 ft 129 kts
2026-04-25 15:57 51.17144 12.34259 2196 ft 127 kts
2026-04-25 15:57 51.17994 12.34558 2188 ft 124 kts
2026-04-25 15:57 51.18818 12.34916 2194 ft 126 kts
2026-04-25 15:57 51.19660 12.35282 2199 ft 125 kts
2026-04-25 15:58 51.20501 12.35655 2200 ft 126 kts 11°
2026-04-25 15:58 51.21306 12.36199 2182 ft 125 kts 17°
2026-04-25 15:58 51.22091 12.36806 2189 ft 126 kts 19°
2026-04-25 15:58 51.22892 12.37428 2185 ft 130 kts 19°
2026-04-25 15:59 51.23707 12.38042 2179 ft 129 kts 19°
2026-04-25 15:59 51.24519 12.38659 2176 ft 129 kts 19°
2026-04-25 15:59 51.25327 12.39284 2058 ft 136 kts 19°
2026-04-25 15:59 51.26234 12.39994 1798 ft 150 kts 20°
2026-04-25 16:00 51.26855 12.40479 1740 ft 150 kts 20°
2026-04-25 16:00 51.27473 12.40961 1705 ft 149 kts 19°
2026-04-25 16:00 51.29072 12.41988 1584 ft 144 kts 16°
2026-04-25 16:00 51.29974 12.42704 1428 ft 143 kts 21°
2026-04-25 16:01 51.30867 12.43379 1226 ft 138 kts 26°
2026-04-25 16:01 51.31253 12.44599 1076 ft 132 kts 111°
2026-04-25 16:01 51.30615 12.45001 1123 ft 110 kts 238°
2026-04-25 16:01 51.30545 12.44033 918 ft 43 kts 307°
2026-04-25 16:02 51.30555 12.43801 695 ft 6 kts 304°
2026-04-25 16:02 51.30589 12.43719 598 ft 9 kts 307°
2026-04-25 16:02 51.30604 12.43684 496 ft 1 kts 308°
2026-04-25 16:02 51.30607 12.43678 484 ft 0 kts 309°
2026-04-25 16:03 51.30607 12.43679 482 ft 0 kts 309°
2026-04-25 16:18 51.30597 12.43697 514 ft 3 kts 309°
2026-04-25 16:18 51.30584 12.43721 580 ft 3 kts 310°
2026-04-25 16:19 51.30579 12.43743 653 ft 1 kts 310°
2026-04-25 16:19 51.30654 12.43598 825 ft 48 kts 305°
2026-04-25 16:19 51.30445 12.42942 820 ft 100 kts 193°
2026-04-25 16:20 51.28877 12.42400 1151 ft 129 kts 210°
2026-04-25 16:20 51.28058 12.41668 1281 ft 136 kts 215°
2026-04-25 16:20 51.26442 12.40442 1952 ft 130 kts 207°
2026-04-25 16:21 51.25531 12.39937 2070 ft 144 kts 205°
2026-04-25 16:21 51.24566 12.39432 1996 ft 142 kts 204°
2026-04-25 16:21 51.23652 12.38984 1998 ft 135 kts 204°
2026-04-25 16:21 51.22756 12.38549 2037 ft 136 kts 203°
2026-04-25 16:22 51.21851 12.38097 2207 ft 134 kts 203°
2026-04-25 16:22 51.20989 12.37682 2625 ft 126 kts 203°
2026-04-25 16:22 51.20153 12.37284 3042 ft 125 kts 204°
2026-04-25 16:22 51.19323 12.36912 3446 ft 123 kts 203°
2026-04-25 16:23 51.18507 12.36545 3838 ft 120 kts 204°
2026-04-25 16:23 51.17698 12.36214 4224 ft 121 kts 204°
2026-04-25 16:23 51.16886 12.35902 4611 ft 119 kts 204°
2026-04-25 16:23 51.16078 12.35601 4938 ft 121 kts 203°
2026-04-25 16:24 51.15214 12.35259 5078 ft 136 kts 204°
2026-04-25 16:24 51.14259 12.34857 5072 ft 149 kts 204°
2026-04-25 16:24 51.13245 12.34379 5075 ft 154 kts 205°
2026-04-25 16:24 51.12205 12.33875 5067 ft 157 kts 205°
2026-04-25 16:25 51.11165 12.33331 5068 ft 159 kts 206°
2026-04-25 16:25 51.10470 12.32951 5062 ft 159 kts 207°
2026-04-25 16:25 51.09084 12.32168 5065 ft 158 kts 208°
2026-04-25 16:25 51.08058 12.31544 5063 ft 158 kts 209°
2026-04-25 16:26 51.07036 12.30913 5063 ft 158 kts 209°
2026-04-25 16:26 51.06013 12.30272 5060 ft 158 kts 209°
2026-04-25 16:26 51.04988 12.29628 5057 ft 160 kts 209°
2026-04-25 16:26 51.03954 12.28973 5054 ft 159 kts 209°
2026-04-25 16:27 51.02942 12.28325 5056 ft 159 kts 209°
2026-04-25 16:27 51.01924 12.27675 5055 ft 158 kts 209°
2026-04-25 16:27 51.00898 12.27015 5057 ft 160 kts 210°
2026-04-25 16:27 50.99865 12.26354 5054 ft 160 kts 209°
2026-04-25 16:28 50.98841 12.25700 5051 ft 158 kts 209°
2026-04-25 16:28 50.97827 12.25051 5058 ft 157 kts 209°
2026-04-25 16:28 50.96811 12.24396 5059 ft 158 kts 210°
2026-04-25 16:28 50.95788 12.23740 5052 ft 157 kts 210°
2026-04-25 16:29 50.94776 12.23109 5058 ft 156 kts 209°
2026-04-25 16:29 50.93764 12.22474 5061 ft 157 kts 209°
2026-04-25 16:29 50.92749 12.21833 5062 ft 158 kts 209°
2026-04-25 16:29 50.91730 12.21181 5056 ft 158 kts 209°
2026-04-25 16:30 50.90710 12.20528 5056 ft 157 kts 209°
2026-04-25 16:30 50.89706 12.19884 5058 ft 154 kts 209°
2026-04-25 16:30 50.88709 12.19246 5068 ft 155 kts 209°
2026-04-25 16:30 50.87698 12.18595 5065 ft 158 kts 209°
2026-04-25 16:31 50.86676 12.17936 5062 ft 158 kts 209°
2026-04-25 16:31 50.85665 12.17278 5064 ft 157 kts 210°
2026-04-25 16:31 50.84659 12.16633 5064 ft 155 kts 209°
2026-04-25 16:31 50.83665 12.15999 5070 ft 155 kts 209°
2026-04-25 16:32 50.82665 12.15354 5066 ft 155 kts 209°
2026-04-25 16:32 50.81665 12.14701 5072 ft 156 kts 209°
2026-04-25 16:32 50.80660 12.14042 5068 ft 156 kts 209°
2026-04-25 16:32 50.79657 12.13387 5069 ft 155 kts 209°
2026-04-25 16:33 50.78661 12.12735 5069 ft 158 kts 209°
2026-04-25 16:33 50.77630 12.12054 5064 ft 159 kts 209°
2026-04-25 16:33 50.76623 12.11396 5068 ft 156 kts 209°
2026-04-25 16:33 50.75638 12.10748 5071 ft 155 kts 209°
2026-04-25 16:34 50.74633 12.10080 5072 ft 159 kts 209°
2026-04-25 16:34 50.73613 12.09394 5070 ft 160 kts 210°
2026-04-25 16:34 50.72583 12.08719 5065 ft 160 kts 209°
2026-04-25 16:34 50.71568 12.08057 5070 ft 157 kts 209°
2026-04-25 16:35 50.70557 12.07394 5070 ft 157 kts 209°
2026-04-25 16:35 50.69549 12.06723 5070 ft 158 kts 209°
2026-04-25 16:35 50.68546 12.06061 5070 ft 156 kts 209°
2026-04-25 16:35 50.67537 12.05387 5074 ft 158 kts 209°
2026-04-25 16:36 50.66524 12.04702 5068 ft 159 kts 209°
2026-04-25 16:36 50.66181 12.04469 5075 ft 159 kts 209°
2026-04-25 16:36 50.64484 12.03322 5069 ft 160 kts 209°
2026-04-25 16:36 50.63461 12.02629 5070 ft 160 kts 209°
2026-04-25 16:37 50.62442 12.01943 5069 ft 159 kts 209°
2026-04-25 16:37 50.61437 12.01265 5075 ft 159 kts 209°
2026-04-25 16:37 50.60411 12.00569 5079 ft 158 kts 209°
2026-04-25 16:37 50.59417 11.99891 5074 ft 156 kts 209°
2026-04-25 16:38 50.58408 11.99235 5074 ft 153 kts 208°
2026-04-25 16:38 50.57427 11.98623 5081 ft 155 kts 207°
2026-04-25 16:38 50.56416 11.97993 5085 ft 156 kts 207°
2026-04-25 16:38 50.55408 11.97370 5084 ft 155 kts 207°
2026-04-25 16:39 50.54405 11.96759 5086 ft 155 kts 207°
2026-04-25 16:39 50.53390 11.96132 5088 ft 157 kts 207°
2026-04-25 16:39 50.52374 11.95505 5083 ft 158 kts 207°
2026-04-25 16:39 50.51348 11.94872 5083 ft 158 kts 207°
2026-04-25 16:40 50.50334 11.94243 5081 ft 157 kts 207°
2026-04-25 16:40 50.49318 11.93618 5087 ft 155 kts 207°
2026-04-25 16:40 50.48312 11.92995 5097 ft 156 kts 207°
2026-04-25 16:40 50.47301 11.92367 5084 ft 156 kts 207°
2026-04-25 16:41 50.46282 11.91746 5086 ft 157 kts 207°
2026-04-25 16:41 50.45596 11.91332 5086 ft 157 kts 207°
2026-04-25 16:41 50.43219 11.89925 5091 ft 156 kts 206°
2026-04-25 16:42 50.42209 11.89330 5085 ft 156 kts 206°
2026-04-25 16:42 50.41194 11.88726 5096 ft 156 kts 206°
2026-04-25 16:42 50.40187 11.88122 5087 ft 155 kts 206°
2026-04-25 16:42 50.39183 11.87520 5099 ft 155 kts 206°
2026-04-25 16:43 50.38180 11.86913 5094 ft 154 kts 206°
2026-04-25 16:43 50.37181 11.86306 5091 ft 154 kts 207°
2026-04-25 16:43 50.36180 11.85720 5095 ft 153 kts 206°
2026-04-25 16:43 50.35182 11.85122 5099 ft 154 kts 206°
2026-04-25 16:44 50.34187 11.84528 5087 ft 152 kts 205°
2026-04-25 16:44 50.33186 11.83970 5095 ft 154 kts 205°
2026-04-25 16:44 50.32166 11.83409 5097 ft 156 kts 204°
2026-04-25 16:44 50.31141 11.82843 5090 ft 156 kts 204°
2026-04-25 16:45 50.30114 11.82277 5092 ft 158 kts 204°
2026-04-25 16:45 50.29071 11.81700 5087 ft 161 kts 204°
2026-04-25 16:45 50.28021 11.81117 5083 ft 158 kts 204°
2026-04-25 16:45 50.26984 11.80546 5087 ft 158 kts 204°
2026-04-25 16:46 50.25937 11.79982 5087 ft 159 kts 204°
2026-04-25 16:46 50.24896 11.79415 5085 ft 157 kts 204°
2026-04-25 16:46 50.23887 11.78862 5085 ft 156 kts 204°
2026-04-25 16:46 50.23540 11.78674 5093 ft 156 kts 204°
2026-04-25 16:47 50.21815 11.77737 5091 ft 160 kts 204°
2026-04-25 16:47 50.20767 11.77170 5073 ft 158 kts 204°
2026-04-25 16:47 50.19729 11.76619 5087 ft 157 kts 204°
2026-04-25 16:47 50.18702 11.76067 5091 ft 156 kts 204°
2026-04-25 16:48 50.17674 11.75512 5094 ft 157 kts 205°
2026-04-25 16:48 50.16646 11.74948 5096 ft 156 kts 205°
2026-04-25 16:48 50.15627 11.74375 5093 ft 156 kts 204°
2026-04-25 16:48 50.14596 11.73789 5093 ft 159 kts 205°
2026-04-25 16:49 50.13570 11.73202 5089 ft 155 kts 205°
2026-04-25 16:49 50.12566 11.72612 5097 ft 154 kts 205°
2026-04-25 16:49 50.11567 11.72013 5098 ft 153 kts 206°
2026-04-25 16:49 50.10569 11.71415 5102 ft 154 kts 206°
2026-04-25 16:50 50.09900 11.71011 5098 ft 155 kts 206°
2026-04-25 16:50 50.08560 11.70198 5095 ft 156 kts 206°
2026-04-25 16:50 50.07548 11.69589 5093 ft 155 kts 206°
2026-04-25 16:50 50.06541 11.68980 5094 ft 156 kts 206°
2026-04-25 16:51 50.05522 11.68357 4968 ft 160 kts 206°
2026-04-25 16:51 50.04496 11.67704 4603 ft 157 kts 207°
2026-04-25 16:51 50.03459 11.67260 4264 ft 152 kts 196°
2026-04-25 16:51 50.03111 11.67154 4145 ft 151 kts 196°
2026-04-25 16:52 50.01375 11.66666 3531 ft 151 kts 192°
2026-04-25 16:52 50.00343 11.66474 3155 ft 148 kts 190°
2026-04-25 16:52 49.99376 11.66096 2676 ft 141 kts 228°
2026-04-25 16:52 49.98806 11.64980 2145 ft 113 kts 243°
2026-04-25 16:53 49.98316 11.63819 1647 ft 10 kts 246°
2026-04-25 16:53 49.98304 11.63780 1624 ft 5 kts 247°
2026-04-25 16:53 49.98297 11.63758 1607 ft 1 kts 241°
2026-04-25 16:54 49.98295 11.63753 1600 ft 0 kts 239°
2026-04-25 16:54 49.98295 11.63752 1596 ft 0 kts 240°
2026-04-25 16:54 49.98294 11.63751 1596 ft 0 kts 240°